Time;durP1;ratioP1;P1;durP2;ratioP2;P2;SDS_P1;SDS_P2;PMS_P1;PMS_P2;Temp;Humidity;BMP_temperature;BMP_pressure;BME280_temperature;BME280_humidity;BME280_pressure;Samples;Min_cycle;Max_cycle;Signal;HPM_P1;HPM_P2
2022/10/20 00:01:39;;;;;;;2.37;1.43;;;10.60;99.90;;;;;;5071038;28;20837;-51
2022/10/20 00:04:06;;;;;;;5.00;1.70;;;11.00;99.90;;;;;;5070339;28;20530;-51
2022/10/20 00:06:33;;;;;;;4.60;1.83;;;11.30;99.90;;;;;;5071098;28;20537;-51
2022/10/20 00:09:02;;;;;;;3.93;1.80;;;11.30;99.90;;;;;;5070788;28;20469;-52
2022/10/20 00:11:29;;;;;;;5.43;1.83;;;11.60;99.90;;;;;;5070731;28;21111;-51
2022/10/20 00:13:57;;;;;;;3.17;2.10;;;11.60;99.90;;;;;;5070639;28;21029;-51
2022/10/20 00:16:26;;;;;;;3.10;2.00;;;11.80;99.90;;;;;;5070736;28;20536;-51
2022/10/20 00:18:55;;;;;;;3.80;1.47;;;11.80;99.90;;;;;;5073870;28;20466;-50
2022/10/20 00:21:25;;;;;;;2.73;1.63;;;11.80;99.90;;;;;;5074571;28;20527;-53
2022/10/20 00:23:52;;;;;;;1.70;1.20;;;11.70;99.90;;;;;;5074144;28;21005;-51
2022/10/20 00:26:21;;;;;;;4.40;1.67;;;11.50;99.90;;;;;;5074403;28;20528;-51
2022/10/20 00:28:49;;;;;;;4.10;1.60;;;11.40;99.90;;;;;;5074319;28;20465;-51
2022/10/20 00:31:18;;;;;;;2.27;1.50;;;11.60;99.90;;;;;;5074386;28;20483;-51
2022/10/20 00:33:45;;;;;;;4.20;1.83;;;11.60;99.90;;;;;;5074299;28;20899;-52
2022/10/20 00:36:16;;;;;;;4.03;1.40;;;11.70;99.90;;;;;;5074552;28;20445;-51
2022/10/20 00:38:43;;;;;;;2.33;1.60;;;11.30;99.90;;;;;;5074060;28;20553;-51
2022/10/20 00:41:12;;;;;;;5.80;2.00;;;10.80;99.90;;;;;;5073954;28;20525;-51
2022/10/20 00:43:45;;;;;;;3.97;1.93;;;10.70;99.90;;;;;;5074172;28;20598;-51
2022/10/20 00:46:13;;;;;;;4.20;2.47;;;10.60;99.90;;;;;;5074468;28;20528;-53
2022/10/20 00:48:42;;;;;;;4.07;1.60;;;10.60;99.90;;;;;;5073390;28;20473;-51
2022/10/20 00:51:12;;;;;;;2.57;1.53;;;10.70;99.90;;;;;;5073880;28;20488;-51
2022/10/20 00:53:40;;;;;;;2.83;1.10;;;11.00;99.90;;;;;;5073887;28;20452;-51
2022/10/20 00:56:07;;;;;;;5.90;1.83;;;11.40;99.90;;;;;;5074031;28;20454;-51
2022/10/20 00:58:35;;;;;;;2.70;1.90;;;11.50;99.90;;;;;;5073944;28;20928;-51
2022/10/20 01:01:02;;;;;;;3.47;1.60;;;10.90;99.90;;;;;;5073630;28;20444;-51
2022/10/20 01:03:35;;;;;;;2.00;1.80;;;10.50;99.90;;;;;;5073613;28;20438;-52
2022/10/20 01:06:03;;;;;;;3.33;1.57;;;10.80;99.90;;;;;;5073490;28;20531;-51
2022/10/20 01:08:29;;;;;;;3.93;1.63;;;11.20;99.90;;;;;;5073699;28;20488;-51
2022/10/20 01:11:08;;;;;;;2.40;1.73;;;11.40;99.90;;;;;;5073960;28;20481;-51
2022/10/20 01:13:46;;;;;;;2.40;1.67;;;11.00;99.90;;;;;;5073453;28;20533;-51
2022/10/20 01:16:21;;;;;;;3.53;1.50;;;10.60;99.90;;;;;;5073397;28;20441;-51
2022/10/20 01:19:02;;;;;;;4.80;2.13;;;10.40;99.90;;;;;;5073505;28;20556;-51
2022/10/20 01:21:52;;;;;;;4.07;1.60;;;10.90;99.90;;;;;;5073394;28;20475;-51
2022/10/20 01:24:50;;;;;;;2.00;1.40;;;11.20;99.90;;;;;;5073202;28;20997;-51
2022/10/20 01:27:31;;;;;;;5.53;1.80;;;11.40;99.90;;;;;;5068529;28;20479;-51
2022/10/20 01:30:06;;;;;;;2.57;1.90;;;11.50;99.90;;;;;;5073188;28;20449;-52
2022/10/20 01:32:54;;;;;;;3.87;2.00;;;11.20;99.90;;;;;;5073288;28;20440;-51
2022/10/20 01:35:28;;;;;;;2.57;1.87;;;11.20;99.90;;;;;;5072652;28;20966;-51
2022/10/20 01:38:01;;;;;;;4.60;2.10;;;10.20;99.90;;;;;;5073209;28;20472;-51
2022/10/20 01:40:32;;;;;;;3.50;1.90;;;9.90;99.90;;;;;;5073155;28;20521;-51
2022/10/20 01:43:04;;;;;;;3.70;2.30;;;9.50;99.90;;;;;;5072715;28;20821;-51
2022/10/20 01:45:33;;;;;;;2.83;2.07;;;9.50;99.90;;;;;;5072839;28;20933;-51
2022/10/20 01:50:33;;;;;;;4.27;1.80;;;9.60;99.90;;;;;;5049498;28;20485;-50
2022/10/20 01:53:01;;;;;;;2.83;1.63;;;10.10;99.90;;;;;;5052647;28;20444;-51
2022/10/20 01:55:28;;;;;;;1.87;1.20;;;10.50;99.90;;;;;;5053013;28;20880;-47
2022/10/20 01:58:16;;;;;;;3.30;1.30;;;10.80;99.90;;;;;;5053069;28;20556;-47
2022/10/20 02:00:44;;;;;;;2.00;1.20;;;10.80;99.90;;;;;;5032850;28;20438;-48
2022/10/20 02:03:36;;;;;;;2.30;1.47;;;10.90;99.90;;;;;;5032118;28;20809;-49
2022/10/20 02:06:13;;;;;;;2.20;1.10;;;10.90;99.90;;;;;;5032425;28;20532;-48
2022/10/20 02:08:45;;;;;;;1.77;1.27;;;11.00;99.90;;;;;;5032681;28;20459;-47
2022/10/20 02:11:30;;;;;;;1.60;1.20;;;11.00;99.90;;;;;;5032824;28;20992;-47
2022/10/20 02:13:59;;;;;;;1.97;1.60;;;11.00;99.90;;;;;;5032511;28;20443;-48
2022/10/20 02:16:30;;;;;;;2.40;1.37;;;11.00;99.90;;;;;;5032612;28;20445;-48
2022/10/20 02:18:58;;;;;;;1.97;1.20;;;11.00;99.90;;;;;;5032691;28;20463;-48
2022/10/20 02:21:25;;;;;;;2.17;1.40;;;11.00;99.90;;;;;;5032604;28;20448;-48
2022/10/20 02:23:53;;;;;;;3.20;1.37;;;11.10;99.90;;;;;;5032148;28;20536;-48
2022/10/20 02:26:24;;;;;;;2.50;1.50;;;11.10;99.90;;;;;;5032280;28;20443;-48
2022/10/20 02:28:55;;;;;;;1.73;1.20;;;11.20;99.90;;;;;;5032259;28;20473;-48
2022/10/20 02:31:24;;;;;;;3.40;1.40;;;11.10;99.90;;;;;;5032194;28;20573;-48
2022/10/20 02:33:53;;;;;;;2.10;1.03;;;10.90;99.90;;;;;;5032112;28;20450;-48
2022/10/20 02:36:25;;;;;;;2.10;1.17;;;11.10;99.90;;;;;;5032219;28;20446;-48
2022/10/20 02:38:51;;;;;;;3.67;1.57;;;11.30;99.90;;;;;;5032063;28;20550;-47
2022/10/20 02:41:18;;;;;;;1.70;1.50;;;11.10;99.90;;;;;;5031219;28;20519;-47
2022/10/20 02:43:45;;;;;;;3.03;1.27;;;10.40;99.90;;;;;;5032059;28;20452;-49
2022/10/20 02:46:12;;;;;;;3.40;1.60;;;10.20;99.90;;;;;;5032341;28;20829;-48
2022/10/20 02:48:40;;;;;;;4.90;1.83;;;10.60;99.90;;;;;;5031557;28;20503;-49
2022/10/20 02:51:07;;;;;;;2.47;1.60;;;10.70;99.90;;;;;;5031441;28;20948;-48
2022/10/20 02:53:34;;;;;;;1.83;1.13;;;10.90;99.90;;;;;;5031916;28;20975;-48
2022/10/20 02:56:01;;;;;;;2.80;1.30;;;10.80;99.90;;;;;;5032003;28;20465;-48
2022/10/20 02:58:28;;;;;;;2.13;1.43;;;10.40;99.90;;;;;;5031607;28;21015;-49
2022/10/20 03:00:54;;;;;;;2.30;1.27;;;10.60;99.90;;;;;;5031753;28;20445;-49
2022/10/20 03:03:21;;;;;;;2.43;1.47;;;10.90;99.90;;;;;;5031437;28;20875;-48
2022/10/20 03:05:49;;;;;;;4.97;2.40;;;10.80;99.90;;;;;;5031195;28;20526;-47
2022/10/20 03:08:16;;;;;;;5.40;2.60;;;10.70;99.90;;;;;;5031774;28;20554;-48
2022/10/20 03:10:43;;;;;;;3.50;1.80;;;10.20;99.90;;;;;;5031519;28;20482;-48
2022/10/20 03:13:11;;;;;;;8.07;1.73;;;10.40;99.90;;;;;;5031246;28;20443;-47
2022/10/20 03:15:38;;;;;;;2.00;1.27;;;10.70;99.90;;;;;;5031524;28;20448;-48
2022/10/20 03:18:05;;;;;;;2.60;1.13;;;10.90;99.90;;;;;;5031461;28;20447;-47
2022/10/20 03:20:32;;;;;;;3.40;1.20;;;11.00;99.90;;;;;;5031195;28;20444;-49
2022/10/20 03:23:00;;;;;;;2.20;1.40;;;10.90;99.90;;;;;;5031339;28;20442;-47
2022/10/20 03:25:27;;;;;;;3.10;1.60;;;10.90;99.90;;;;;;5031358;28;20439;-48
2022/10/20 03:27:54;;;;;;;6.27;2.70;;;11.10;99.90;;;;;;5031526;28;20445;-49
2022/10/20 03:30:21;;;;;;;2.70;2.30;;;11.20;99.90;;;;;;5031585;28;20498;-47
2022/10/20 03:32:48;;;;;;;2.83;1.40;;;10.10;99.90;;;;;;5031118;28;20529;-47
2022/10/20 03:35:15;;;;;;;1.77;1.10;;;9.60;99.90;;;;;;5031016;28;20445;-48
2022/10/20 03:37:41;;;;;;;2.63;1.30;;;9.50;99.90;;;;;;5031247;28;20447;-47
2022/10/20 03:40:10;;;;;;;1.93;1.20;;;9.80;99.90;;;;;;5031421;28;20558;-47
2022/10/20 03:42:37;;;;;;;2.80;1.00;;;10.20;99.90;;;;;;5031262;28;20533;-48
2022/10/20 03:45:05;;;;;;;2.63;2.43;;;10.20;99.90;;;;;;5031337;28;20972;-47
2022/10/20 03:47:31;;;;;;;1.90;1.60;;;10.10;99.90;;;;;;5030964;28;20444;-48
2022/10/20 03:49:58;;;;;;;2.60;1.73;;;9.90;99.90;;;;;;5030487;28;20983;-47
2022/10/20 03:52:25;;;;;;;5.20;2.10;;;9.80;99.90;;;;;;5033036;28;20537;-47
2022/10/20 03:54:52;;;;;;;6.23;1.70;;;10.30;99.90;;;;;;5034723;28;20538;-47
2022/10/20 03:57:21;;;;;;;2.70;1.43;;;10.20;99.90;;;;;;5035106;28;20526;-47
2022/10/20 03:59:47;;;;;;;3.10;2.13;;;9.80;99.90;;;;;;5034851;28;21058;-47
2022/10/20 04:02:28;;;;;;;2.50;1.30;;;9.60;99.90;;;;;;5034921;28;21006;-48
2022/10/20 04:04:55;;;;;;;2.40;1.30;;;9.70;99.90;;;;;;5034935;28;20466;-48
2022/10/20 04:07:22;;;;;;;2.40;1.40;;;10.10;99.90;;;;;;5034896;28;20525;-48
2022/10/20 04:09:49;;;;;;;4.30;1.63;;;10.10;99.90;;;;;;5034670;28;20463;-48
2022/10/20 04:12:15;;;;;;;4.37;2.13;;;10.30;99.90;;;;;;5034540;28;20557;-47
2022/10/20 04:14:44;;;;;;;6.17;5.77;;;10.40;99.90;;;;;;5034564;28;20443;-48
2022/10/20 04:17:10;;;;;;;3.17;2.80;;;10.50;99.90;;;;;;5034741;28;20538;-48
2022/10/20 04:19:37;;;;;;;6.20;2.97;;;10.40;99.90;;;;;;5034615;28;20545;-49
2022/10/20 04:22:04;;;;;;;3.70;1.83;;;10.50;99.90;;;;;;5034540;28;20529;-48
2022/10/20 04:24:31;;;;;;;2.20;1.33;;;9.90;99.90;;;;;;5034156;28;20829;-47
2022/10/20 04:26:58;;;;;;;3.70;2.20;;;9.40;99.90;;;;;;5034580;28;20510;-48
2022/10/20 04:29:25;;;;;;;6.90;2.13;;;9.70;99.90;;;;;;5034401;28;21042;-47
2022/10/20 04:31:53;;;;;;;2.67;2.40;;;10.10;99.90;;;;;;5034684;28;20569;-50
2022/10/20 04:34:20;;;;;;;4.80;2.60;;;10.30;99.90;;;;;;5034443;28;20449;-50
2022/10/20 04:36:47;;;;;;;3.60;2.50;;;10.30;99.90;;;;;;5034384;28;20529;-47
2022/10/20 04:39:14;;;;;;;4.97;2.80;;;10.30;99.90;;;;;;5034245;28;20655;-48
2022/10/20 04:41:41;;;;;;;2.90;2.17;;;10.30;99.90;;;;;;5034447;28;20865;-48
2022/10/20 04:44:08;;;;;;;4.37;3.97;;;10.40;99.90;;;;;;5033931;28;20466;-47
2022/10/20 04:46:35;;;;;;;7.80;5.03;;;10.40;99.90;;;;;;5034130;28;20533;-48
2022/10/20 04:49:04;;;;;;;9.00;5.33;;;10.40;99.90;;;;;;5033640;28;20532;-47
2022/10/20 04:51:31;;;;;;;3.60;2.00;;;10.40;99.90;;;;;;5034308;28;21096;-49
2022/10/20 04:53:58;;;;;;;3.00;2.03;;;10.50;99.90;;;;;;5033786;28;20534;-49
2022/10/20 04:56:25;;;;;;;7.00;6.33;;;9.70;99.90;;;;;;5033991;28;20542;-47
2022/10/20 04:58:53;;;;;;;10.60;9.50;;;10.10;99.90;;;;;;5033617;28;20748;-48
2022/10/20 05:01:22;;;;;;;6.97;6.27;;;10.30;99.90;;;;;;5033731;28;20529;-48
2022/10/20 05:03:49;;;;;;;4.33;3.87;;;10.50;99.90;;;;;;5032873;28;20534;-47
2022/10/20 05:06:20;;;;;;;3.30;2.10;;;10.40;99.90;;;;;;5033926;28;20445;-50
2022/10/20 05:08:48;;;;;;;2.83;2.47;;;10.30;99.90;;;;;;5034151;28;20466;-49
2022/10/20 05:11:16;;;;;;;3.00;2.37;;;10.30;99.90;;;;;;5033696;28;20478;-49
2022/10/20 05:13:43;;;;;;;2.23;1.60;;;10.50;99.90;;;;;;5033356;28;20438;-48
2022/10/20 05:16:10;;;;;;;3.80;1.53;;;10.60;99.90;;;;;;5033467;28;20529;-49
2022/10/20 05:18:38;;;;;;;5.70;1.50;;;10.60;99.90;;;;;;5033769;28;20458;-47
2022/10/20 05:21:06;;;;;;;2.40;1.83;;;10.50;99.90;;;;;;5033746;28;20927;-47
2022/10/20 05:23:34;;;;;;;2.60;1.63;;;10.30;99.90;;;;;;5033408;28;20874;-47
2022/10/20 05:26:03;;;;;;;3.07;1.73;;;10.00;99.90;;;;;;5033497;28;20530;-50
2022/10/20 05:28:30;;;;;;;2.30;1.27;;;9.20;99.90;;;;;;5033262;28;20828;-48
2022/10/20 05:31:00;;;;;;;2.37;1.67;;;9.50;99.90;;;;;;5033920;28;20443;-48
2022/10/20 05:33:27;;;;;;;2.90;1.70;;;10.00;99.90;;;;;;5033635;28;20529;-47
2022/10/20 05:35:54;;;;;;;4.30;1.53;;;10.10;99.90;;;;;;5033520;28;20448;-50
2022/10/20 05:38:20;;;;;;;3.50;1.77;;;9.90;99.90;;;;;;5033050;28;20993;-47
2022/10/20 05:40:49;;;;;;;2.40;2.00;;;10.20;99.90;;;;;;5033348;28;20439;-47
2022/10/20 05:43:16;;;;;;;5.40;2.40;;;10.50;99.90;;;;;;5033095;28;20496;-47
2022/10/20 05:45:42;;;;;;;2.87;1.80;;;10.60;99.90;;;;;;5033210;28;20469;-49
2022/10/20 05:48:09;;;;;;;1.70;1.07;;;10.30;99.90;;;;;;5033227;28;20490;-47
2022/10/20 05:50:37;;;;;;;3.87;2.00;;;10.20;99.90;;;;;;5032396;28;20824;-48
2022/10/20 05:53:04;;;;;;;3.93;1.70;;;9.80;99.90;;;;;;5032703;28;20556;-47
2022/10/20 05:55:31;;;;;;;3.93;2.60;;;10.00;99.90;;;;;;5033068;28;20477;-47
2022/10/20 05:57:59;;;;;;;6.70;2.47;;;10.00;99.90;;;;;;5032930;28;20453;-48
2022/10/20 06:00:29;;;;;;;2.53;1.77;;;10.30;99.90;;;;;;5032959;28;20446;-48
2022/10/20 06:02:57;;;;;;;2.77;1.70;;;10.40;99.90;;;;;;5033036;28;20881;-47
2022/10/20 06:05:24;;;;;;;2.60;1.83;;;10.30;99.90;;;;;;5032438;28;20443;-47
2022/10/20 06:07:53;;;;;;;3.37;1.70;;;10.50;99.90;;;;;;5032650;28;20446;-48
2022/10/20 06:10:20;;;;;;;2.30;1.77;;;10.00;99.90;;;;;;5032782;28;20834;-48
2022/10/20 06:12:46;;;;;;;2.03;1.20;;;9.90;99.90;;;;;;5032609;28;20915;-48
2022/10/20 06:15:15;;;;;;;10.40;3.33;;;10.20;99.90;;;;;;5031177;28;20975;-48
2022/10/20 06:17:42;;;;;;;6.20;3.27;;;10.40;99.90;;;;;;5032564;28;20530;-48
2022/10/20 06:20:09;;;;;;;3.73;2.47;;;10.40;99.90;;;;;;5032682;28;20478;-47
2022/10/20 06:22:36;;;;;;;9.60;2.23;;;10.00;99.90;;;;;;5032135;28;20523;-48
2022/10/20 06:25:03;;;;;;;4.63;3.33;;;9.90;99.90;;;;;;5032392;28;20446;-49
2022/10/20 06:27:30;;;;;;;2.60;2.40;;;10.20;99.90;;;;;;5032634;28;20534;-48
2022/10/20 06:29:57;;;;;;;6.00;1.73;;;10.20;99.90;;;;;;5032123;28;20464;-47
2022/10/20 06:32:25;;;;;;;6.57;2.33;;;10.40;99.90;;;;;;5032107;28;20991;-50
2022/10/20 06:34:52;;;;;;;4.83;1.97;;;10.60;99.90;;;;;;5031925;28;20529;-47
2022/10/20 06:37:19;;;;;;;3.90;2.27;;;10.70;99.90;;;;;;5031973;28;20450;-48
2022/10/20 06:39:46;;;;;;;5.33;2.37;;;10.60;99.90;;;;;;5031867;28;20466;-48
2022/10/20 06:42:13;;;;;;;7.63;2.30;;;10.40;99.90;;;;;;5032477;28;20475;-48
2022/10/20 06:44:40;;;;;;;2.30;1.77;;;10.10;99.90;;;;;;5031817;28;20539;-50
2022/10/20 06:47:09;;;;;;;4.10;2.60;;;10.40;99.90;;;;;;5031986;28;20482;-48
2022/10/20 06:49:37;;;;;;;4.27;3.47;;;10.50;99.90;;;;;;5031412;28;20507;-49
2022/10/20 06:52:04;;;;;;;10.40;8.77;;;10.50;99.90;;;;;;5031686;28;20484;-48
2022/10/20 06:54:31;;;;;;;11.43;5.30;;;10.20;99.90;;;;;;5032234;28;20945;-47
2022/10/20 06:56:58;;;;;;;8.10;4.70;;;9.20;99.90;;;;;;5032110;28;20442;-47
2022/10/20 06:59:25;;;;;;;4.70;3.57;;;8.40;99.90;;;;;;5031859;28;20549;-47
2022/10/20 07:01:52;;;;;;;7.53;5.27;;;8.80;99.90;;;;;;5031972;28;20435;-48
2022/10/20 07:04:19;;;;;;;9.77;4.90;;;9.00;99.90;;;;;;5030912;28;20446;-47
2022/10/20 07:06:47;;;;;;;4.47;3.70;;;9.50;99.90;;;;;;5031713;28;20880;-48
2022/10/20 07:09:15;;;;;;;6.80;4.10;;;9.90;99.90;;;;;;5031634;28;20470;-48
2022/10/20 07:11:42;;;;;;;3.70;3.13;;;10.10;99.90;;;;;;5031631;28;20453;-49
2022/10/20 07:14:12;;;;;;;3.40;2.60;;;10.00;99.90;;;;;;5031332;28;20533;-48
2022/10/20 07:16:38;;;;;;;3.57;2.97;;;10.20;99.90;;;;;;5031715;28;20451;-48
2022/10/20 07:19:05;;;;;;;5.40;2.73;;;10.40;99.90;;;;;;5031538;28;20467;-47
2022/10/20 07:21:33;;;;;;;3.13;2.43;;;10.50;99.90;;;;;;5031445;28;20436;-48
2022/10/20 07:24:03;;;;;;;4.77;2.40;;;10.50;99.90;;;;;;5031262;28;20449;-48
2022/10/20 07:26:31;;;;;;;7.30;2.73;;;10.10;99.90;;;;;;5031144;28;20540;-47
2022/10/20 07:28:59;;;;;;;5.30;3.40;;;9.90;99.90;;;;;;5031508;28;20538;-47
2022/10/20 07:31:28;;;;;;;4.37;3.10;;;9.70;99.90;;;;;;5031483;28;20440;-48
2022/10/20 07:33:57;;;;;;;4.10;3.07;;;9.80;99.90;;;;;;5031026;28;20475;-51
2022/10/20 07:36:25;;;;;;;5.20;3.43;;;10.10;99.90;;;;;;5031167;28;21004;-49
2022/10/20 07:38:54;;;;;;;4.43;3.70;;;10.10;99.90;;;;;;5030072;28;20744;-48
2022/10/20 07:41:23;;;;;;;4.60;4.10;;;9.80;99.90;;;;;;5030870;28;20442;-48
2022/10/20 07:43:50;;;;;;;4.63;4.13;;;9.90;99.90;;;;;;5030882;28;20526;-48
2022/10/20 07:46:17;;;;;;;5.57;4.17;;;9.20;99.90;;;;;;5031307;28;20473;-48
2022/10/20 07:48:45;;;;;;;3.93;3.60;;;9.20;99.90;;;;;;5031779;28;21065;-47
2022/10/20 07:51:17;;;;;;;6.67;4.00;;;9.40;99.90;;;;;;5031243;28;20439;-48
2022/10/20 07:53:44;;;;;;;6.43;4.30;;;9.60;99.90;;;;;;5030729;28;20569;-49
2022/10/20 07:56:11;;;;;;;8.53;4.60;;;10.00;99.90;;;;;;5031155;28;20525;-47
2022/10/20 07:58:39;;;;;;;18.70;9.47;;;10.00;99.90;;;;;;5030852;28;20466;-48
2022/10/20 08:01:07;;;;;;;10.63;5.50;;;9.20;99.90;;;;;;5030899;28;20531;-46
2022/10/20 08:03:35;;;;;;;8.40;5.03;;;9.60;99.90;;;;;;5030639;28;20602;-48
2022/10/20 08:06:02;;;;;;;4.00;3.20;;;10.10;99.90;;;;;;5031259;28;20539;-48
2022/10/20 08:08:29;;;;;;;4.10;3.70;;;10.30;99.90;;;;;;5030959;28;20490;-47
2022/10/20 08:10:56;;;;;;;14.70;6.90;;;10.40;99.90;;;;;;5031227;28;20821;-49
2022/10/20 08:13:23;;;;;;;9.00;7.10;;;10.60;99.90;;;;;;5030742;28;20916;-48
2022/10/20 08:15:52;;;;;;;8.80;6.23;;;10.60;99.90;;;;;;5030809;28;20874;-49
2022/10/20 08:18:19;;;;;;;8.10;5.57;;;10.60;99.90;;;;;;5030503;28;20467;-48
2022/10/20 08:20:46;;;;;;;9.47;5.53;;;10.00;99.90;;;;;;5031028;28;20540;-48
2022/10/20 08:23:13;;;;;;;6.40;3.90;;;10.40;99.90;;;;;;5030972;28;20483;-49
2022/10/20 08:25:40;;;;;;;6.23;3.60;;;10.70;99.90;;;;;;5030988;28;20536;-48
2022/10/20 08:28:08;;;;;;;4.37;3.00;;;10.80;99.90;;;;;;5030688;28;20537;-49
2022/10/20 08:30:35;;;;;;;3.90;3.37;;;11.00;99.90;;;;;;5030878;28;20538;-48
2022/10/20 08:33:03;;;;;;;5.50;2.87;;;11.20;99.90;;;;;;5030210;28;21083;-48
2022/10/20 08:35:30;;;;;;;5.63;2.90;;;11.20;99.90;;;;;;5030812;28;20444;-48
2022/10/20 08:37:57;;;;;;;5.10;3.77;;;11.20;99.90;;;;;;5030745;28;20530;-51
2022/10/20 08:40:27;;;;;;;3.53;3.23;;;11.30;99.90;;;;;;5034360;28;20535;-48
2022/10/20 08:42:55;;;;;;;3.20;2.37;;;11.40;99.90;;;;;;5034040;28;20550;-48
2022/10/20 08:45:25;;;;;;;3.00;2.57;;;11.60;99.90;;;;;;5034107;28;20445;-49
2022/10/20 08:47:55;;;;;;;4.63;3.13;;;11.70;99.90;;;;;;5034453;28;20539;-47
2022/10/20 08:50:26;;;;;;;6.60;2.77;;;11.80;99.90;;;;;;5034007;28;20452;-47
2022/10/20 08:52:56;;;;;;;2.80;2.13;;;11.90;99.90;;;;;;5033776;28;20513;-47
2022/10/20 08:55:28;;;;;;;5.30;2.63;;;11.90;99.90;;;;;;5034120;28;20534;-49
2022/10/20 08:58:00;;;;;;;3.27;2.43;;;12.00;99.90;;;;;;5034078;28;20451;-50
2022/10/20 09:00:27;;;;;;;4.83;3.27;;;12.10;99.90;;;;;;5034310;28;20850;-51
2022/10/20 09:02:55;;;;;;;11.03;2.80;;;12.10;99.90;;;;;;5033674;28;20455;-47
2022/10/20 09:05:29;;;;;;;3.40;2.30;;;12.20;99.90;;;;;;5033884;28;20449;-48
2022/10/20 09:07:55;;;;;;;3.70;1.97;;;12.30;99.90;;;;;;5034098;28;20535;-49
2022/10/20 09:10:30;;;;;;;1.90;1.20;;;12.30;99.90;;;;;;5033996;28;20440;-48
2022/10/20 09:12:57;;;;;;;3.20;2.20;;;12.40;99.90;;;;;;5033696;28;20561;-47
2022/10/20 09:15:26;;;;;;;5.03;2.50;;;12.50;99.90;;;;;;5034243;28;20536;-50
2022/10/20 09:17:56;;;;;;;5.53;2.80;;;12.60;99.90;;;;;;5033741;28;20444;-48
2022/10/20 09:20:28;;;;;;;5.20;2.87;;;12.60;99.90;;;;;;5033890;28;20451;-48
2022/10/20 09:22:55;;;;;;;4.40;3.50;;;12.70;99.90;;;;;;5033743;28;20932;-47
2022/10/20 09:25:26;;;;;;;6.10;3.83;;;12.70;99.90;;;;;;5033829;28;20525;-48
2022/10/20 09:27:54;;;;;;;4.67;3.00;;;12.90;99.90;;;;;;5033821;28;20450;-49
2022/10/20 09:30:24;;;;;;;7.87;2.67;;;13.00;99.90;;;;;;5033301;28;21021;-50
2022/10/20 09:32:52;;;;;;;3.23;2.20;;;13.00;99.90;;;;;;5033214;28;20486;-44
2022/10/20 09:35:23;;;;;;;3.60;2.50;;;13.00;99.90;;;;;;5033568;28;20456;-48
2022/10/20 09:37:59;;;;;;;4.40;1.87;;;13.10;99.90;;;;;;5033248;28;20449;-48
2022/10/20 09:40:27;;;;;;;9.07;2.27;;;13.10;99.90;;;;;;5033475;28;21021;-48
2022/10/20 09:42:56;;;;;;;3.40;2.37;;;13.30;99.90;;;;;;5033226;28;20537;-47
2022/10/20 09:45:27;;;;;;;2.87;1.53;;;13.40;99.90;;;;;;5033247;28;20451;-48
2022/10/20 09:47:59;;;;;;;2.70;1.80;;;13.50;99.90;;;;;;5033276;28;20593;-48
2022/10/20 09:50:29;;;;;;;2.27;1.60;;;13.50;99.90;;;;;;5032812;28;20459;-49
2022/10/20 09:52:58;;;;;;;4.40;1.57;;;13.50;99.90;;;;;;5032753;28;20478;-48
2022/10/20 09:55:29;;;;;;;6.03;2.53;;;13.60;99.90;;;;;;5033091;28;20826;-47
2022/10/20 09:57:59;;;;;;;3.80;1.70;;;13.60;99.90;;;;;;5033327;28;20446;-47
2022/10/20 10:00:30;;;;;;;2.40;1.93;;;13.70;99.90;;;;;;5032874;28;20490;-48
2022/10/20 10:03:20;;;;;;;4.50;2.40;;;13.80;99.90;;;;;;5032761;28;20973;-48
2022/10/20 10:05:50;;;;;;;3.63;2.40;;;14.00;99.90;;;;;;5032617;28;20450;-49
2022/10/20 10:08:20;;;;;;;2.70;1.83;;;14.00;99.90;;;;;;5032814;28;20986;-48
2022/10/20 10:10:59;;;;;;;3.10;2.03;;;14.20;99.90;;;;;;5042760;28;20443;-48
2022/10/20 10:13:28;;;;;;;2.83;2.07;;;14.30;99.90;;;;;;5052600;28;20572;-48
2022/10/20 10:16:01;;;;;;;4.90;2.70;;;14.30;99.90;;;;;;5052380;28;20529;-50
2022/10/20 10:18:28;;;;;;;4.77;2.13;;;14.40;99.90;;;;;;5052447;28;20465;-48
2022/10/20 10:21:01;;;;;;;1.80;1.43;;;14.40;99.90;;;;;;5052820;28;20445;-48
2022/10/20 10:23:32;;;;;;;5.07;1.97;;;14.50;99.90;;;;;;5052365;28;20442;-48
2022/10/20 10:25:59;;;;;;;2.70;2.30;;;14.50;99.90;;;;;;5052348;28;20446;-48
2022/10/20 10:28:37;;;;;;;2.97;1.80;;;14.50;99.90;;;;;;5051377;28;21000;-48
2022/10/20 10:31:19;;;;;;;5.50;1.80;;;14.70;99.90;;;;;;5050638;28;20532;-48
2022/10/20 10:33:47;;;;;;;6.03;2.07;;;14.70;99.90;;;;;;5041742;28;20563;-48
2022/10/20 10:36:22;;;;;;;2.80;1.70;;;14.70;99.90;;;;;;5050254;28;20802;-48
2022/10/20 10:38:50;;;;;;;2.60;2.00;;;14.90;99.90;;;;;;5047571;28;20532;-48
2022/10/20 10:41:23;;;;;;;3.80;2.10;;;14.90;99.90;;;;;;5051228;28;20978;-48
2022/10/20 10:43:59;;;;;;;3.40;2.10;;;15.00;99.90;;;;;;5047899;28;20430;-49
2022/10/20 10:46:28;;;;;;;3.67;2.67;;;15.00;99.90;;;;;;5040841;28;20441;-48
2022/10/20 10:49:08;;;;;;;2.93;2.00;;;15.00;99.90;;;;;;5030045;28;20817;-46
2022/10/20 10:51:46;;;;;;;3.10;2.43;;;15.10;99.90;;;;;;5030147;28;20460;-49
2022/10/20 10:54:26;;;;;;;2.47;2.13;;;15.20;99.90;;;;;;5029821;28;20484;-47
2022/10/20 10:56:56;;;;;;;4.20;2.20;;;15.20;99.90;;;;;;5029819;28;20532;-48
2022/10/20 10:59:28;;;;;;;6.30;2.77;;;15.30;99.90;;;;;;5030097;28;20978;-48
2022/10/20 11:02:17;;;;;;;3.20;2.90;;;15.40;99.90;;;;;;5029302;28;20537;-47
2022/10/20 11:05:12;;;;;;;4.90;2.27;;;15.50;99.90;;;;;;5029189;28;20450;-48
2022/10/20 11:07:49;;;;;;;4.57;2.73;;;15.50;99.90;;;;;;5030514;28;20489;-48
2022/10/20 11:10:24;;;;;;;5.43;2.53;;;15.50;99.90;;;;;;5030279;28;20983;-46
2022/10/20 11:13:08;;;;;;;5.63;2.77;;;15.60;99.90;;;;;;5030513;28;20448;-45
2022/10/20 11:15:57;;;;;;;4.07;2.23;;;15.60;99.90;;;;;;5030904;28;20545;-49
2022/10/20 11:18:47;;;;;;;5.53;2.27;;;15.70;99.90;;;;;;5031393;28;20525;-46
2022/10/20 11:21:25;;;;;;;10.77;2.40;;;15.70;99.90;;;;;;5031239;28;20443;-47
2022/10/20 11:24:10;;;;;;;5.20;2.30;;;15.80;99.90;;;;;;5031175;28;20530;-48
2022/10/20 11:26:40;;;;;;;4.60;2.40;;;15.80;99.90;;;;;;5031711;28;20446;-46
2022/10/20 11:29:14;;;;;;;3.80;2.40;;;15.80;99.90;;;;;;5031485;28;20547;-46
2022/10/20 11:31:48;;;;;;;3.83;2.73;;;15.90;99.90;;;;;;5031636;28;20446;-46
2022/10/20 11:34:20;;;;;;;3.67;2.40;;;15.90;99.90;;;;;;5031053;28;20564;-46
2022/10/20 11:36:51;;;;;;;2.87;2.07;;;16.10;99.90;;;;;;5031570;28;20450;-48
2022/10/20 11:39:28;;;;;;;5.00;2.80;;;16.30;99.90;;;;;;5031412;28;20476;-47
2022/10/20 11:42:00;;;;;;;3.20;2.50;;;16.30;99.90;;;;;;5031102;28;20556;-47
2022/10/20 11:44:34;;;;;;;5.87;3.00;;;16.30;99.90;;;;;;5031204;28;20441;-48
2022/10/20 11:47:06;;;;;;;6.43;2.80;;;16.40;99.90;;;;;;5031454;28;21044;-48
2022/10/20 11:49:33;;;;;;;4.17;2.53;;;16.50;99.90;;;;;;5030930;28;20565;-47
2022/10/20 11:52:34;;;;;;;4.73;1.83;;;16.70;99.90;;;;;;5031215;28;20529;-47
2022/10/20 11:55:24;;;;;;;4.67;2.57;;;16.70;99.90;;;;;;5031036;28;20565;-48
2022/10/20 11:58:10;;;;;;;5.30;2.60;;;16.60;99.90;;;;;;5031387;28;20537;-47
2022/10/20 12:00:58;;;;;;;4.03;2.17;;;16.70;99.90;;;;;;5031222;28;20713;-47
2022/10/20 12:03:46;;;;;;;3.97;3.37;;;16.70;99.90;;;;;;5030791;28;20529;-47
2022/10/20 12:06:44;;;;;;;3.10;2.40;;;16.70;99.90;;;;;;5031108;28;20464;-47
2022/10/20 12:09:41;;;;;;;8.80;3.20;;;16.60;99.90;;;;;;5031366;28;20480;-48
2022/10/20 12:12:14;;;;;;;6.50;2.57;;;16.70;99.90;;;;;;5031247;28;20525;-47
2022/10/20 12:14:47;;;;;;;4.37;3.40;;;16.70;99.90;;;;;;5035039;28;20484;-47
2022/10/20 12:17:37;;;;;;;4.97;2.53;;;16.70;99.90;;;;;;5034978;28;20448;-49
2022/10/20 12:20:48;;;;;;;3.77;2.70;;;16.80;99.90;;;;;;5027106;28;20470;-48
2022/10/20 12:23:50;;;;;;;3.20;2.00;;;16.90;99.90;;;;;;5034773;28;20442;-48
2022/10/20 12:27:03;;;;;;;274.20;24.73;;;16.90;99.90;;;;;;5034684;28;21113;-48
2022/10/20 12:29:59;;;;;;;7.17;3.60;;;17.10;99.90;;;;;;5034640;28;20501;-49
2022/10/20 12:32:38;;;;;;;6.60;2.80;;;17.10;99.90;;;;;;5034546;28;20461;-50
2022/10/20 12:35:30;;;;;;;5.17;2.33;;;17.10;99.90;;;;;;5034636;28;20478;-48
2022/10/20 12:38:00;;;;;;;3.23;1.83;;;16.90;99.90;;;;;;5034450;28;20812;-48
2022/10/20 12:40:31;;;;;;;2.63;2.37;;;17.00;99.90;;;;;;5034296;28;20477;-48
2022/10/20 12:42:58;;;;;;;4.53;2.57;;;16.90;99.90;;;;;;5034191;28;20535;-47
2022/10/20 12:45:36;;;;;;;6.53;2.30;;;16.90;99.90;;;;;;5034545;28;20442;-47
2022/10/20 12:48:04;;;;;;;6.83;2.67;;;17.10;99.90;;;;;;5034291;28;20549;-50
2022/10/20 12:50:35;;;;;;;3.83;2.50;;;17.40;99.90;;;;;;5034159;28;20538;-47
2022/10/20 12:53:13;;;;;;;4.03;2.00;;;17.40;99.90;;;;;;5034192;28;20469;-47
2022/10/20 12:55:40;;;;;;;3.43;2.40;;;17.50;99.90;;;;;;5034357;28;20481;-49
2022/10/20 12:58:25;;;;;;;3.80;2.13;;;17.60;99.90;;;;;;5033976;28;20972;-47
2022/10/20 13:01:11;;;;;;;3.60;2.10;;;17.30;99.90;;;;;;5034310;28;20444;-50
2022/10/20 13:03:45;;;;;;;2.93;1.93;;;17.40;99.90;;;;;;5033969;28;20534;-47
2022/10/20 13:06:42;;;;;;;14.60;3.00;;;17.40;99.90;;;;;;5034335;28;20543;-48
2022/10/20 13:09:22;;;;;;;5.20;2.07;;;17.40;99.90;;;;;;5033921;28;20462;-47
2022/10/20 13:12:24;;;;;;;3.40;2.30;;;17.40;99.90;;;;;;5033943;28;20447;-47